Terminal Aerodrome Forecast
Issued by NWS

Home | Current Version | Previous Version | Text Only | Print | Product List | Glossary On
Versions: 1 2 3 4 5 6 7 8 9 10 11 12 13 14 15 16 17 18 19 20 21 22 23 24 25 26 27 28 29
000
FTUS43 KSGF 031500 AAB
TAFJLN
TAF AMD
KJLN 031513Z 0315/0412 21016G23KT 6SM BR OVC008 WS020/23050KT
     FM031700 21017G25KT P6SM OVC015
     FM032200 24012KT P6SM OVC025
     FM040200 33006KT P6SM OVC015
     FM040400 35010KT 4SM -RA BR OVC015
     FM040700 01012KT 4SM -SN BR OVC007=

USA.gov is the U.S. government's official web portal to all federal, state and local government web resources and services.